createdAt,value
2022-12-23T00:01:03.215Z,12.74
2022-12-23T00:06:17.157Z,12.63
2022-12-23T00:11:21.292Z,12.40
2022-12-23T00:16:24.995Z,12.46
2022-12-23T00:21:28.839Z,12.59
2022-12-23T00:26:32.557Z,12.55
2022-12-23T00:31:37.055Z,12.63
2022-12-23T00:36:41.879Z,12.75
2022-12-23T00:42:05.182Z,12.85
2022-12-23T00:47:29.019Z,12.99
2022-12-23T00:52:33.355Z,12.89
2022-12-23T00:57:37.093Z,12.99
2022-12-23T01:02:59.360Z,13.21
2022-12-23T01:08:12.522Z,11.34
2022-12-23T01:13:16.829Z,11.09
2022-12-23T01:18:20.415Z,11.72
2022-12-23T01:23:24.238Z,11.91
2022-12-23T01:28:30.280Z,12.04
2022-12-23T01:33:34.596Z,11.91
2022-12-23T01:38:38.511Z,12.26
2022-12-23T01:43:46.845Z,13.20
2022-12-23T01:48:53.932Z,12.66
2022-12-23T01:54:02.264Z,10.73
2022-12-23T01:59:37.187Z,11.85
2022-12-23T02:04:41.368Z,12.78
2022-12-23T02:09:45.507Z,12.37
2022-12-23T02:15:29.256Z,11.16
2022-12-23T02:21:03.818Z,11.67
2022-12-23T02:26:38.329Z,12.30
2022-12-23T02:31:58.688Z,12.70
2022-12-23T02:37:17.551Z,12.71
2022-12-23T02:42:36.517Z,11.41
2022-12-23T02:47:52.119Z,10.54
2022-12-23T02:53:01.074Z,11.12
2022-12-23T02:58:13.844Z,12.29
2022-12-23T03:03:17.943Z,12.63
2022-12-23T03:08:32.418Z,10.92
2022-12-23T03:14:05.413Z,11.01
2022-12-23T03:19:24.386Z,12.24
2022-12-23T03:24:49.413Z,12.59
2022-12-23T03:30:20.063Z,11.77
2022-12-23T03:35:36.979Z,10.22
2022-12-23T03:46:57.376Z,11.27
2022-12-23T03:52:21.213Z,11.16
2022-12-23T03:57:40.063Z,11.77
2022-12-23T04:03:00.745Z,12.13
2022-12-23T04:08:21.774Z,12.10
2022-12-23T04:13:28.859Z,12.46
2022-12-23T04:18:33.361Z,10.75
2022-12-23T04:23:37.081Z,11.21
2022-12-23T04:28:40.875Z,12.10
2022-12-23T04:33:44.649Z,12.19
2022-12-23T04:38:48.630Z,10.52
2022-12-23T04:43:53.448Z,11.99
2022-12-23T04:48:57.714Z,12.73
2022-12-23T04:54:01.830Z,11.92
2022-12-23T04:59:05.495Z,10.78
2022-12-23T05:04:13.551Z,11.78
2022-12-23T05:09:17.622Z,12.49
2022-12-23T05:14:21.441Z,12.79
2022-12-23T05:19:26.808Z,10.88
2022-12-23T05:24:30.611Z,11.17
2022-12-23T05:29:34.437Z,11.62
2022-12-23T05:34:38.389Z,11.78
2022-12-23T05:39:42.328Z,12.07
2022-12-23T05:44:46.827Z,10.58
2022-12-23T05:49:51.394Z,9.66
2022-12-23T05:54:56.746Z,11.08
2022-12-23T06:00:00.584Z,11.55
2022-12-23T06:05:05.364Z,11.48
2022-12-23T06:10:11.954Z,11.57
2022-12-23T06:15:16.782Z,12.10
2022-12-23T06:20:21.223Z,11.13
2022-12-23T06:25:25.555Z,10.13
2022-12-23T06:30:29.675Z,11.16
2022-12-23T06:35:33.620Z,11.62
2022-12-23T06:40:37.520Z,11.93
2022-12-23T06:45:46.333Z,12.24
2022-12-23T06:50:50.198Z,10.57
2022-12-23T06:56:02.684Z,11.28
2022-12-23T07:01:07.032Z,11.67
2022-12-23T07:06:11.097Z,10.53
2022-12-23T07:11:14.936Z,11.63
2022-12-23T07:16:18.891Z,12.08
2022-12-23T07:21:28.853Z,11.61
2022-12-23T07:26:33.861Z,9.74
2022-12-23T07:31:40.937Z,10.93
2022-12-23T07:36:45.296Z,11.58
2022-12-23T07:41:55.509Z,11.87
2022-12-23T07:47:07.793Z,11.88
2022-12-23T07:52:11.822Z,11.85
2022-12-23T07:57:16.256Z,11.57
2022-12-23T08:02:25.722Z,11.72
2022-12-23T08:07:29.981Z,11.58
2022-12-23T08:12:34.809Z,11.30
2022-12-23T08:17:38.941Z,11.38
2022-12-23T08:22:43.187Z,11.82
2022-12-23T08:27:47.389Z,11.89
2022-12-23T08:32:51.952Z,11.71
2022-12-23T08:37:55.980Z,11.47
2022-12-23T08:43:00.005Z,11.43
2022-12-23T08:48:05.276Z,11.31
2022-12-23T08:53:09.758Z,11.29
2022-12-23T08:58:15.502Z,10.96
2022-12-23T09:03:19.507Z,10.88
2022-12-23T09:08:24.649Z,10.95
2022-12-23T09:13:35.259Z,11.34
2022-12-23T09:18:40.109Z,11.42
2022-12-23T09:23:44.551Z,11.45
2022-12-23T09:28:49.301Z,11.01
2022-12-23T09:33:54.664Z,11.34
2022-12-23T09:38:59.459Z,11.74
2022-12-23T09:44:15.413Z,11.62
2022-12-23T09:49:24.252Z,11.64
2022-12-23T09:54:41.779Z,11.54
2022-12-23T10:00:20.611Z,11.09
2022-12-23T10:06:03.248Z,11.26
2022-12-23T10:11:22.453Z,11.38
2022-12-23T10:16:43.290Z,11.50
2022-12-23T10:21:54.583Z,11.23
2022-12-23T10:27:07.019Z,11.48
2022-12-23T10:33:03.055Z,11.42
2022-12-23T10:38:30.342Z,11.51
2022-12-23T10:43:53.821Z,11.34
2022-12-23T10:49:52.324Z,11.37
2022-12-23T10:54:56.380Z,11.58
2022-12-23T11:00:00.388Z,11.52
2022-12-23T11:05:09.448Z,11.71
2022-12-23T11:10:29.136Z,11.47
2022-12-23T11:15:40.067Z,11.79
2022-12-23T11:21:01.770Z,11.15
2022-12-23T11:26:18.196Z,10.93
2022-12-23T11:31:36.634Z,10.68
2022-12-23T11:36:42.329Z,10.84
2022-12-23T11:41:51.054Z,10.84
2022-12-23T11:46:56.105Z,11.13
2022-12-23T11:52:12.859Z,11.05
2022-12-23T11:57:26.380Z,10.90
2022-12-23T12:02:45.298Z,10.86
2022-12-23T12:07:51.908Z,11.00
2022-12-23T12:13:09.503Z,11.83
2022-12-23T12:18:19.650Z,12.04
2022-12-23T12:23:35.892Z,12.05
2022-12-23T12:28:44.714Z,12.43
2022-12-23T12:33:55.540Z,12.08
2022-12-23T12:39:00.968Z,10.06
2022-12-23T12:44:17.029Z,10.78
2022-12-23T12:49:33.711Z,12.10
2022-12-23T12:54:52.825Z,12.27
2022-12-23T13:00:05.631Z,12.32
2022-12-23T13:05:38.878Z,12.28
2022-12-23T13:10:57.860Z,11.28
2022-12-23T13:16:42.189Z,10.41
2022-12-23T13:22:28.788Z,11.76
2022-12-23T13:27:44.879Z,12.00
2022-12-23T13:33:20.517Z,11.94
2022-12-23T13:39:00.835Z,11.13
2022-12-23T13:44:09.950Z,11.07
2022-12-23T13:49:24.245Z,11.61
2022-12-23T13:54:56.133Z,12.58
2022-12-23T14:00:34.309Z,11.63
2022-12-23T14:05:53.593Z,10.06
2022-12-23T14:11:12.203Z,10.75
2022-12-23T14:16:33.160Z,11.02
2022-12-23T14:22:15.744Z,10.86
2022-12-23T14:28:09.272Z,10.92
2022-12-23T14:33:19.245Z,11.33
2022-12-23T14:38:31.916Z,12.52
2022-12-23T14:43:56.725Z,12.54
2022-12-23T14:49:36.921Z,10.50
2022-12-23T14:54:46.482Z,11.91
2022-12-23T15:00:06.789Z,12.97
2022-12-23T15:05:11.522Z,11.04
2022-12-23T15:10:23.709Z,10.46
2022-12-23T15:15:35.218Z,12.14
2022-12-23T15:20:41.634Z,12.95
2022-12-23T15:25:51.589Z,12.23
2022-12-23T15:30:57.527Z,10.32
2022-12-23T15:36:06.039Z,11.69
2022-12-23T15:41:19.118Z,12.71
2022-12-23T15:46:30.173Z,13.08
2022-12-23T15:52:12.462Z,11.17
2022-12-23T15:57:22.304Z,9.37
2022-12-23T16:03:00.341Z,11.13
2022-12-23T16:08:28.506Z,12.60
2022-12-23T16:13:34.323Z,13.06
2022-12-23T16:18:47.273Z,11.61
2022-12-23T16:23:53.353Z,9.61
2022-12-23T16:29:01.556Z,10.44
2022-12-23T16:34:08.333Z,11.86
2022-12-23T16:39:22.720Z,12.59
2022-12-23T16:44:26.734Z,12.89
2022-12-23T16:49:34.087Z,12.36
2022-12-23T16:54:38.379Z,10.11
2022-12-23T16:59:41.991Z,8.80
2022-12-23T17:04:45.610Z,9.96
2022-12-23T17:09:49.384Z,11.55
2022-12-23T17:14:53.266Z,12.28
2022-12-23T17:19:58.112Z,12.41
2022-12-23T17:25:02.141Z,10.58
2022-12-23T17:30:11.062Z,10.82
2022-12-23T17:35:15.625Z,12.21
2022-12-23T17:40:20.319Z,12.44
2022-12-23T17:45:28.203Z,11.27
2022-12-23T17:50:35.435Z,10.58
2022-12-23T17:55:40.775Z,12.09
2022-12-23T18:00:48.519Z,12.54
2022-12-23T18:06:01.585Z,10.88
2022-12-23T18:11:17.512Z,10.80
2022-12-23T18:16:24.222Z,11.93
2022-12-23T18:21:31.296Z,12.28
2022-12-23T18:26:36.643Z,12.33
2022-12-23T18:31:51.396Z,11.87
2022-12-23T18:36:56.602Z,10.31
2022-12-23T18:42:00.997Z,11.38
2022-12-23T18:47:05.872Z,11.89
2022-12-23T18:52:15.567Z,12.43
2022-12-23T18:57:20.650Z,11.59
2022-12-23T19:02:26.908Z,10.12
2022-12-23T19:07:33.700Z,11.33
2022-12-23T19:12:39.454Z,12.17
2022-12-23T19:17:44.328Z,12.55
2022-12-23T19:22:49.840Z,11.72
2022-12-23T19:27:53.613Z,9.61
2022-12-23T19:32:57.773Z,9.05
2022-12-23T19:38:02.196Z,10.99
2022-12-23T19:43:06.606Z,12.01
2022-12-23T19:48:13.528Z,12.64
2022-12-23T19:53:18.279Z,11.71
2022-12-23T19:58:36.561Z,10.21
2022-12-23T20:03:47.929Z,11.66
2022-12-23T20:08:59.757Z,12.26
2022-12-23T20:14:06.775Z,12.55
2022-12-23T20:19:11.788Z,10.73
2022-12-23T20:24:17.167Z,9.03
2022-12-23T20:29:21.304Z,9.98
2022-12-23T20:34:25.440Z,11.06
2022-12-23T20:39:29.723Z,11.43
2022-12-23T20:44:36.202Z,11.50
2022-12-23T20:49:41.416Z,11.77
2022-12-23T20:54:45.476Z,12.19
2022-12-23T20:59:50.402Z,12.33
2022-12-23T21:04:54.593Z,12.49
2022-12-23T21:09:59.311Z,10.54
2022-12-23T21:15:03.936Z,9.52
2022-12-23T21:20:09.668Z,10.87
2022-12-23T21:25:13.932Z,11.71
2022-12-23T21:30:18.804Z,11.23
2022-12-23T21:35:23.122Z,9.60
2022-12-23T21:40:27.743Z,11.13
2022-12-23T21:45:31.796Z,11.26
2022-12-23T21:50:36.117Z,9.15
2022-12-23T21:55:40.654Z,9.51
2022-12-23T22:00:47.159Z,11.27
2022-12-23T22:05:50.885Z,10.09
2022-12-23T22:10:54.800Z,8.38
2022-12-23T22:15:59.895Z,7.29
2022-12-23T22:21:15.182Z,7.93
2022-12-23T22:26:25.656Z,10.56
2022-12-23T22:31:40.707Z,10.15
2022-12-23T22:36:45.756Z,8.16
2022-12-23T22:41:51.927Z,7.03
2022-12-23T22:46:56.182Z,7.14
2022-12-23T22:52:00.879Z,9.46
2022-12-23T22:57:06.032Z,10.20
2022-12-23T23:02:09.630Z,10.80
2022-12-23T23:07:13.529Z,9.77
2022-12-23T23:12:17.372Z,8.18
2022-12-23T23:17:27.834Z,8.04
2022-12-23T23:22:31.568Z,9.59
2022-12-23T23:27:35.593Z,11.17
2022-12-23T23:32:39.136Z,10.31
2022-12-23T23:37:43.094Z,8.35
2022-12-23T23:42:46.982Z,8.00
2022-12-23T23:47:51.369Z,10.39
2022-12-23T23:52:55.135Z,11.15
2022-12-23T23:57:59.367Z,9.14
